Time;durP1;ratioP1;P1;durP2;ratioP2;P2;SDS_P1;SDS_P2;PMS_P1;PMS_P2;Temp;Humidity;BMP_temperature;BMP_pressure;BME280_temperature;BME280_humidity;BME280_pressure;Samples;Min_cycle;Max_cycle;Signal;HPM_P1;HPM_P2
2023/07/13 00:01:08;;;;;;;810.22;534.50;;;;;;;;;;5030377;28;20433;-61
2023/07/13 00:03:35;;;;;;;817.45;552.35;;;;;;;;;;5031732;28;20518;-60
2023/07/13 00:06:02;;;;;;;804.10;530.00;;;;;;;;;;5020614;28;20504;-60
2023/07/13 00:08:35;;;;;;;817.63;563.75;;;;;;;;;;5028875;28;20434;-60
2023/07/13 00:11:10;;;;;;;813.13;547.90;;;;;;;;;;5016990;28;20516;-60
2023/07/13 00:13:39;;;;;;;820.13;551.65;;;;;;;;;;5003580;28;20432;-61
2023/07/13 00:16:06;;;;;;;808.47;541.03;;;;;;;;;;5027729;28;20803;-61
2023/07/13 00:18:34;;;;;;;803.57;528.57;;;;;;;;;;5036850;28;20546;-61
2023/07/13 00:21:04;;;;;;;802.75;535.22;;;;;;;;;;5007201;28;20782;-60
2023/07/13 00:23:33;;;;;;;803.87;524.50;;;;;;;;;;5018808;28;20487;-60
2023/07/13 00:26:01;;;;;;;809.97;525.15;;;;;;;;;;5028214;28;20435;-61
2023/07/13 00:28:34;;;;;;;814.55;529.47;;;;;;;;;;5008047;28;21501;-61
2023/07/13 00:31:04;;;;;;;820.42;554.95;;;;;;;;;;5020691;28;20442;-60
2023/07/13 00:33:35;;;;;;;813.28;535.80;;;;;;;;;;5034891;28;20491;-61
2023/07/13 00:36:02;;;;;;;814.33;548.28;;;;;;;;;;5029926;28;20452;-61
2023/07/13 00:38:29;;;;;;;821.60;571.22;;;;;;;;;;5034230;28;20541;-61
2023/07/13 00:40:57;;;;;;;818.63;564.85;;;;;;;;;;5030222;28;20564;-61
2023/07/13 00:43:27;;;;;;;819.83;562.15;;;;;;;;;;5025688;28;20442;-61
2023/07/13 00:45:54;;;;;;;830.37;574.13;;;;;;;;;;5024283;28;21011;-61
2023/07/13 00:48:26;;;;;;;845.65;586.72;;;;;;;;;;5017754;28;20792;-61
2023/07/13 00:50:55;;;;;;;851.80;597.60;;;;;;;;;;5034921;28;20429;-61
2023/07/13 00:53:22;;;;;;;877.28;611.00;;;;;;;;;;5021804;28;20457;-60
2023/07/13 00:55:50;;;;;;;866.88;603.53;;;;;;;;;;5029209;28;20425;-60
2023/07/13 00:58:18;;;;;;;864.22;601.05;;;;;;;;;;5014180;28;21484;-61
2023/07/13 01:00:47;;;;;;;859.08;594.20;;;;;;;;;;5033508;28;20463;-65
2023/07/13 01:03:14;;;;;;;831.85;577.30;;;;;;;;;;5032089;28;20432;-60
2023/07/13 01:05:42;;;;;;;830.42;574.72;;;;;;;;;;5024692;28;20528;-61
2023/07/13 01:08:09;;;;;;;835.25;578.78;;;;;;;;;;5003527;28;20980;-61
2023/07/13 01:10:39;;;;;;;835.20;568.63;;;;;;;;;;5013262;28;20524;-60
2023/07/13 01:13:07;;;;;;;836.83;575.38;;;;;;;;;;5013448;28;20514;-61
2023/07/13 01:15:39;;;;;;;836.17;578.15;;;;;;;;;;5026846;28;20455;-61
2023/07/13 01:18:18;;;;;;;853.65;591.40;;;;;;;;;;5031786;28;20818;-60
2023/07/13 01:20:51;;;;;;;850.83;588.35;;;;;;;;;;5034967;28;20444;-61
2023/07/13 01:23:19;;;;;;;851.17;591.63;;;;;;;;;;5031003;28;20477;-61
2023/07/13 01:25:46;;;;;;;850.15;592.38;;;;;;;;;;5027403;28;20483;-60
2023/07/13 01:28:13;;;;;;;862.00;591.17;;;;;;;;;;5022415;28;20519;-60
2023/07/13 01:30:45;;;;;;;852.30;585.47;;;;;;;;;;5021807;28;20444;-61
2023/07/13 01:33:21;;;;;;;844.67;570.42;;;;;;;;;;5024018;28;20514;-60
2023/07/13 01:35:52;;;;;;;842.75;577.33;;;;;;;;;;5034292;28;20433;-60
2023/07/13 01:38:20;;;;;;;849.90;571.63;;;;;;;;;;5021874;28;20430;-61
2023/07/13 01:40:48;;;;;;;831.20;562.40;;;;;;;;;;5034776;28;20533;-60
2023/07/13 01:43:15;;;;;;;842.33;568.17;;;;;;;;;;5027803;28;20576;-61
2023/07/13 01:45:43;;;;;;;845.58;560.80;;;;;;;;;;5019218;28;20965;-61
2023/07/13 01:48:13;;;;;;;849.30;575.17;;;;;;;;;;5027031;28;20780;-60
2023/07/13 01:50:40;;;;;;;858.42;575.80;;;;;;;;;;5037369;28;20438;-61
2023/07/13 01:53:07;;;;;;;856.45;568.20;;;;;;;;;;5026150;28;20430;-60
2023/07/13 01:55:35;;;;;;;848.35;555.10;;;;;;;;;;5023550;28;20434;-60
2023/07/13 01:58:03;;;;;;;852.22;561.00;;;;;;;;;;5020133;28;20511;-60
2023/07/13 02:00:30;;;;;;;850.33;555.95;;;;;;;;;;5024342;28;20492;-61
2023/07/13 02:02:57;;;;;;;843.17;535.88;;;;;;;;;;5034834;28;20429;-61
2023/07/13 02:05:25;;;;;;;822.95;497.85;;;;;;;;;;5027890;28;20432;-60
2023/07/13 02:07:52;;;;;;;814.63;493.98;;;;;;;;;;5029900;28;20424;-60
2023/07/13 02:10:20;;;;;;;808.85;496.70;;;;;;;;;;5029352;28;20451;-61
2023/07/13 02:12:50;;;;;;;816.20;500.10;;;;;;;;;;5019121;28;20927;-60
2023/07/13 02:15:17;;;;;;;798.57;481.90;;;;;;;;;;5014710;28;20557;-60
2023/07/13 02:17:45;;;;;;;801.25;494.05;;;;;;;;;;5029960;28;20830;-60
2023/07/13 02:20:12;;;;;;;797.53;476.65;;;;;;;;;;5025636;28;20429;-60
2023/07/13 02:22:39;;;;;;;803.88;481.80;;;;;;;;;;5032526;28;20507;-60
2023/07/13 02:25:07;;;;;;;798.60;492.75;;;;;;;;;;5029662;28;20435;-60
2023/07/13 02:27:34;;;;;;;789.33;477.50;;;;;;;;;;5026060;28;20459;-60
2023/07/13 02:30:02;;;;;;;787.53;472.07;;;;;;;;;;5031680;28;20877;-60
2023/07/13 02:32:32;;;;;;;793.45;479.13;;;;;;;;;;5030794;28;20525;-60
2023/07/13 02:35:03;;;;;;;795.28;489.25;;;;;;;;;;5016817;28;20435;-60
2023/07/13 02:37:30;;;;;;;795.70;487.75;;;23.30;90.90;;;;;;5023580;28;20430;-60
2023/07/13 02:39:57;;;;;;;793.75;476.70;;;;;;;;;;5026288;28;20936;-60
2023/07/13 02:42:27;;;;;;;791.27;481.57;;;;;;;;;;5019294;28;20473;-60
2023/07/13 02:44:57;;;;;;;791.63;479.23;;;;;;;;;;5030307;28;20441;-60
2023/07/13 02:47:27;;;;;;;798.03;488.67;;;;;;;;;;5030446;28;20444;-60
2023/07/13 02:49:57;;;;;;;799.78;486.77;;;;;;;;;;5034630;28;20429;-60
2023/07/13 02:52:25;;;;;;;804.42;496.20;;;;;;;;;;5018529;28;20441;-60
2023/07/13 02:54:52;;;;;;;789.97;467.85;;;;;;;;;;5019112;28;20510;-60
2023/07/13 02:57:20;;;;;;;791.08;461.02;;;;;;;;;;5027875;28;20441;-60
2023/07/13 02:59:47;;;;;;;796.35;468.15;;;;;;;;;;5026256;28;20434;-60
2023/07/13 03:02:14;;;;;;;788.40;452.35;;;;;;;;;;5027730;28;20896;-60
2023/07/13 03:04:42;;;;;;;832.08;501.95;;;;;;;;;;5024562;28;20427;-60
2023/07/13 03:07:15;;;;;;;832.00;496.52;;;;;;;;;;5020016;28;21025;-60
2023/07/13 03:09:42;;;;;;;822.45;497.52;;;;;;;;;;5028349;28;20443;-60
2023/07/13 03:12:09;;;;;;;810.25;498.30;;;;;;;;;;5010055;28;20435;-60
2023/07/13 03:14:37;;;;;;;817.63;508.52;;;;;;;;;;5027764;28;20453;-60
2023/07/13 03:17:04;;;;;;;817.28;483.98;;;;;;;;;;5038707;28;20483;-60
2023/07/13 03:19:31;;;;;;;804.63;479.15;;;;;;;;;;5029566;28;20431;-60
2023/07/13 03:21:58;;;;;;;804.80;491.00;;;;;;;;;;5027446;28;20431;-60
2023/07/13 03:24:26;;;;;;;805.85;498.48;;;;;;;;;;5027309;28;20451;-60
2023/07/13 03:26:53;;;;;;;814.45;503.77;;;13.00;99.90;;;;;;5041995;28;20524;-60
2023/07/13 03:29:19;;;;;;;798.60;483.75;;;11.90;99.90;;;;;;5034967;28;20439;-60
2023/07/13 03:31:46;;;;;;;808.17;488.67;;;11.80;99.90;;;;;;5008701;28;20435;-60
2023/07/13 03:34:13;;;;;;;810.67;515.10;;;11.80;1.00;;;;;;5026516;28;20438;-60
2023/07/13 03:36:40;;;;;;;815.72;516.35;;;11.80;1.00;;;;;;5025443;28;21016;-60
2023/07/13 03:39:10;;;;;;;801.70;485.65;;;11.70;1.00;;;;;;5031704;28;20431;-58
2023/07/13 03:41:36;;;;;;;806.33;492.65;;;11.70;63.50;;;;;;5010636;28;20840;-61
2023/07/13 03:44:03;;;;;;;805.30;487.43;;;11.70;93.90;;;;;;5023691;28;20539;-60
2023/07/13 03:46:31;;;;;;;804.38;486.63;;;11.70;99.90;;;;;;5015666;28;20426;-61
2023/07/13 03:48:57;;;;;;;804.28;490.90;;;11.70;99.90;;;;;;5026208;28;20483;-60
2023/07/13 03:51:24;;;;;;;806.07;492.23;;;11.70;99.90;;;;;;5007502;28;20428;-58
2023/07/13 03:53:51;;;;;;;809.17;493.75;;;11.70;99.90;;;;;;5031813;28;20932;-58
2023/07/13 03:56:18;;;;;;;812.47;504.95;;;11.70;99.90;;;;;;5015344;28;20454;-59
2023/07/13 03:58:47;;;;;;;814.40;502.80;;;11.70;99.90;;;;;;5023474;28;20495;-58
2023/07/13 04:01:16;;;;;;;815.22;506.15;;;11.70;99.90;;;;;;5026210;28;20429;-59
2023/07/13 04:03:44;;;;;;;811.05;492.63;;;11.80;1.00;;;;;;5032463;28;20445;-59
2023/07/13 04:06:20;;;;;;;812.35;493.48;;;11.90;1.00;;;;;;5028398;28;20435;-59
2023/07/13 04:08:50;;;;;;;810.92;493.65;;;12.00;1.00;;;;;;5014239;28;20445;-59
2023/07/13 04:11:18;;;;;;;809.17;505.30;;;12.00;99.90;;;;;;5020883;28;20429;-59
2023/07/13 04:13:45;;;;;;;808.92;505.73;;;12.10;99.90;;;;;;5024120;28;20436;-59
2023/07/13 04:16:13;;;;;;;815.63;511.95;;;12.20;99.90;;;;;;5025740;28;20427;-59
2023/07/13 04:18:41;;;;;;;824.03;518.53;;;12.30;99.90;;;;;;5013038;28;20441;-59
2023/07/13 04:21:11;;;;;;;827.13;518.33;;;12.40;99.90;;;;;;5020468;28;21042;-59
2023/07/13 04:23:38;;;;;;;830.53;513.95;;;12.40;1.00;;;;;;5029077;28;20448;-59
2023/07/13 04:26:06;;;;;;;832.13;527.65;;;12.50;1.00;;;;;;5025690;28;20462;-59
2023/07/13 04:28:34;;;;;;;832.47;531.97;;;12.60;99.90;;;;;;5020957;28;20504;-59
2023/07/13 04:31:04;;;;;;;816.28;506.65;;;12.70;99.90;;;;;;5021595;28;20508;-59
2023/07/13 04:33:31;;;;;;;817.17;515.20;;;12.80;99.90;;;;;;5024970;28;20793;-59
2023/07/13 04:35:59;;;;;;;813.95;504.73;;;12.90;41.70;;;;;;5038944;28;20428;-59
2023/07/13 04:38:31;;;;;;;820.22;519.63;;;13.00;1.00;;;;;;5024768;28;20434;-59
2023/07/13 04:41:03;;;;;;;826.83;530.40;;;13.10;1.00;;;;;;5028667;28;20420;-59
2023/07/13 04:43:31;;;;;;;824.27;526.50;;;13.20;99.90;;;;;;5003191;28;20432;-59
2023/07/13 04:46:04;;;;;;;830.13;535.23;;;13.30;99.90;;;;;;5026025;28;20435;-59
2023/07/13 04:48:31;;;;;;;855.17;574.33;;;13.70;99.90;;;;;;5017764;28;20430;-59
2023/07/13 04:50:59;;;;;;;852.60;551.92;;;;;;;;;;5020595;28;21111;-60
2023/07/13 04:53:26;;;;;;;879.90;606.97;;;14.50;99.90;;;;;;5002320;28;20515;-59
2023/07/13 04:55:53;;;;;;;917.05;659.38;;;16.60;99.90;;;;;;5029952;28;20433;-59
2023/07/13 04:58:21;;;;;;;939.55;699.85;;;;;;;;;;5023021;28;20513;-59
2023/07/13 05:00:49;;;;;;;916.65;684.58;;;;;;;;;;5028429;28;20453;-59
2023/07/13 05:03:16;;;;;;;985.33;787.88;;;;;;;;;;5014870;28;20430;-60
2023/07/13 05:05:43;;;;;;;1008.55;830.30;;;;;;;;;;5021769;28;20491;-60
2023/07/13 05:08:11;;;;;;;982.95;805.47;;;;;;;;;;5023140;28;20437;-60
2023/07/13 05:10:38;;;;;;;994.65;829.95;;;;;;;;;;5016663;28;20455;-60
2023/07/13 05:13:05;;;;;;;994.40;835.60;;;;;;;;;;5022524;28;20476;-60
2023/07/13 05:15:33;;;;;;;999.10;846.00;;;;;;;;;;5029780;28;20430;-59
2023/07/13 05:18:01;;;;;;;973.17;830.03;;;;;;;;;;5029621;28;20491;-59
2023/07/13 05:20:28;;;;;;;962.13;817.83;;;;;;;;;;5019537;28;20589;-59
2023/07/13 05:22:55;;;;;;;978.03;847.47;;;;;;;;;;5024358;28;20435;-59
2023/07/13 05:25:25;;;;;;;982.00;848.88;;;;;;;;;;5023835;28;20430;-60
2023/07/13 05:27:52;;;;;;;1017.25;888.88;;;;;;;;;;5030399;28;20434;-60
2023/07/13 05:30:20;;;;;;;1022.72;897.22;;;;;;;;;;5025607;28;20435;-60
2023/07/13 05:32:49;;;;;;;1030.30;911.35;;;;;;;;;;5017674;28;20975;-60
2023/07/13 05:35:16;;;;;;;1019.50;897.05;;;;;;;;;;5018556;28;20515;-60
2023/07/13 05:37:44;;;;;;;1026.25;905.67;;;;;;;;;;5026203;28;20462;-60
2023/07/13 05:40:11;;;;;;;1034.07;919.22;;;;;;;;;;5029553;28;20474;-60
2023/07/13 05:42:38;;;;;;;1055.72;939.58;;;;;;;;;;5019020;28;20466;-60
2023/07/13 05:45:06;;;;;;;1036.20;921.27;;;;;;;;;;5025219;28;20508;-60
2023/07/13 05:47:33;;;;;;;1027.80;913.65;;;;;;;;;;5010644;28;20521;-60
2023/07/13 05:50:00;;;;;;;1030.87;916.93;;;;;;;;;;5023914;28;20433;-59
2023/07/13 05:52:32;;;;;;;1080.63;967.33;;;;;;;;;;5028434;28;20427;-59
2023/07/13 05:54:59;;;;;;;1046.72;930.65;;;;;;;;;;5027898;28;20425;-59
2023/07/13 05:57:26;;;;;;;1042.35;920.05;;;;;;;;;;5009442;28;20473;-59
2023/07/13 05:59:53;;;;;;;1043.10;921.42;;;;;;;;;;5023573;28;21156;-59
2023/07/13 06:02:23;;;;;;;1049.30;932.83;;;;;;;;;;5027699;28;20438;-59
2023/07/13 06:04:50;;;;;;;1051.45;934.83;;;;;;;;;;5027791;28;21067;-59
2023/07/13 06:07:19;;;;;;;1034.35;917.65;;;;;;;;;;5027142;28;20474;-59
2023/07/13 06:09:46;;;;;;;1030.10;913.25;;;;;;;;;;5021254;28;20439;-59
2023/07/13 06:12:16;;;;;;;1033.40;917.50;;;;;;;;;;5026588;28;20523;-59
2023/07/13 06:14:44;;;;;;;1055.13;938.78;;;;;;;;;;5025804;28;20462;-59
2023/07/13 06:17:11;;;;;;;1042.97;928.30;;;;;;;;;;5006534;28;20519;-59
2023/07/13 06:19:38;;;;;;;1046.60;932.10;;;;;;;;;;5024902;28;20507;-59
2023/07/13 06:22:09;;;;;;;1125.50;999.90;;;;;;;;;;5026650;28;20585;-59
2023/07/13 06:24:36;;;;;;;1061.10;945.80;;;;;;;;;;5019862;28;20456;-59
2023/07/13 06:27:03;;;;;;;997.22;885.83;;;;;;;;;;5021714;28;20531;-59
2023/07/13 06:29:31;;;;;;;956.75;843.80;;;;;;;;;;5013968;28;20438;-59
2023/07/13 06:31:58;;;;;;;1021.37;908.37;;;;;;;;;;5028318;28;20837;-59
2023/07/13 06:34:26;;;;;;;1007.42;883.05;;;;;;;;;;5011016;28;20423;-59
2023/07/13 06:36:53;;;;;;;967.20;839.47;;;;;;;;;;5037453;28;20427;-59
2023/07/13 06:39:20;;;;;;;1035.22;834.85;;;;;;;;;;5027408;28;20464;-59
2023/07/13 06:41:50;;;;;;;985.67;824.05;;;;;;;;;;5031928;28;20488;-59
2023/07/13 06:44:17;;;;;;;1023.20;901.15;;;;;;;;;;5039981;28;20459;-59
2023/07/13 06:46:44;;;;;;;1010.67;900.72;;;;;;;;;;5027111;28;20592;-59
2023/07/13 06:49:11;;;;;;;1000.40;874.25;;;;;;;;;;5022617;28;20437;-59
2023/07/13 06:51:38;;;;;;;999.35;899.00;;;;;;;;;;5024010;28;20773;-60
2023/07/13 06:54:06;;;;;;;894.75;819.05;;;;;;;;;;5023488;28;20492;-59
2023/07/13 06:56:33;;;;;;;823.00;751.65;;;;;;;;;;5040461;28;20458;-59
2023/07/13 06:59:00;;;;;;;941.53;861.83;;;;;;;;;;5021574;28;20535;-60
2023/07/13 07:01:29;;;;;;;982.03;899.47;;;;;;;;;;5039698;28;20506;-60
2023/07/13 07:03:57;;;;;;;855.45;781.53;;;;;;;;;;5028927;28;20434;-60
2023/07/13 07:06:27;;;;;;;859.60;785.33;;;;;;;;;;5028709;28;20439;-60
2023/07/13 07:08:54;;;;;;;1009.65;918.03;;;;;;;;;;5022914;28;20774;-60
2023/07/13 07:11:23;;;;;;;1016.30;925.30;;;;;;;;;;5023547;28;20427;-60
2023/07/13 07:13:51;;;;;;;579.42;524.72;;;;;;;;;;5028573;28;20433;-60
2023/07/13 07:16:19;;;;;;;866.13;790.85;;;;;;;;;;5026492;28;20439;-60
2023/07/13 07:18:47;;;;;;;989.45;904.50;;;;;;;;;;5026685;28;20458;-60
2023/07/13 07:21:14;;;;;;;768.95;701.15;;;;;;;;;;5026418;28;20489;-60
2023/07/13 07:23:41;;;;;;;933.78;846.08;;;;;;;;;;5027766;28;20608;-60
2023/07/13 07:26:09;;;;;;;1048.07;934.85;;;;;;;;;;5034827;28;20478;-60
2023/07/13 07:28:37;;;;;;;1065.07;948.80;;;;;;;;;;5011062;28;20460;-60
2023/07/13 07:31:10;;;;;;;1029.68;919.22;;;;;;;;;;5023450;28;20442;-60
2023/07/13 07:33:42;;;;;;;1017.80;893.78;;;;;;;;;;5027613;28;20434;-59
2023/07/13 07:36:13;;;;;;;1028.72;903.13;;;;;;;;;;5026911;28;20430;-59
2023/07/13 07:38:45;;;;;;;547.03;494.53;;;;;;;;;;5040241;28;20425;-60
2023/07/13 07:41:15;;;;;;;565.07;511.50;;;;;;;;;;5022570;28;20500;-60
2023/07/13 07:43:45;;;;;;;665.60;604.72;;;;;;;;;;5027266;28;20470;-60
2023/07/13 07:46:12;;;;;;;695.43;632.37;;;;;;;;;;5025374;28;20453;-60
2023/07/13 07:48:40;;;;;;;812.72;741.33;;;;;;;;;;5027864;28;20454;-60
2023/07/13 07:51:07;;;;;;;987.00;903.90;;;;;;;;;;5018963;28;20436;-60
2023/07/13 07:53:34;;;;;;;745.25;678.63;;;;;;;;;;5027846;28;20426;-60
2023/07/13 07:56:01;;;;;;;979.60;894.78;;;;;;;;;;5026335;28;20514;-59
2023/07/13 07:58:51;;;;;;;1040.50;939.72;;;;;;;;;;5023210;28;20415;-60
2023/07/13 08:01:22;;;;;;;1047.57;933.85;;;;;;;;;;5027654;28;20594;-60
2023/07/13 08:03:55;;;;;;;1049.63;936.03;;;;;;;;;;5011527;28;20433;-59
2023/07/13 08:06:26;;;;;;;1057.55;942.78;;;;;;;;;;5023514;28;20455;-60
2023/07/13 08:08:56;;;;;;;1058.55;945.38;;;;;;;;;;5025630;28;20511;-60
2023/07/13 08:11:23;;;;;;;1061.97;953.00;;;;;;;;;;5007113;28;20520;-60
2023/07/13 08:13:53;;;;;;;1065.68;950.72;;;;;;;;;;5022164;28;20517;-60
2023/07/13 08:16:22;;;;;;;1048.82;932.63;;;;;;;;;;5024876;28;20484;-60
2023/07/13 08:18:49;;;;;;;1063.07;947.80;;;;;;;;;;5028993;28;20557;-60
2023/07/13 08:21:19;;;;;;;1074.15;957.00;;;;;;;;;;5027880;28;20967;-60
2023/07/13 08:23:47;;;;;;;1057.72;944.30;;;;;;;;;;5024867;28;20478;-60
2023/07/13 08:26:17;;;;;;;1056.05;940.33;;;;;;;;;;5020542;28;20489;-60
2023/07/13 08:28:44;;;;;;;1066.47;950.50;;;;;;;;;;5020898;28;20443;-60
2023/07/13 08:31:11;;;;;;;1061.22;937.65;;;;;;;;;;5015160;28;20577;-60
2023/07/13 08:33:40;;;;;;;1034.82;899.50;;;;;;;;;;5022674;28;20435;-60
2023/07/13 08:36:10;;;;;;;987.50;877.70;;;;;;;;;;5025977;28;21048;-60
2023/07/13 08:38:41;;;;;;;1031.80;916.30;;;;;;;;;;5024825;28;20434;-60
2023/07/13 08:41:12;;;;;;;1070.22;955.55;;;;;;;;;;5025680;28;20791;-60
2023/07/13 08:43:40;;;;;;;1079.47;948.15;;;;;;;;;;5028453;28;20439;-60
2023/07/13 08:46:07;;;;;;;1038.90;924.70;;;;;;;;;;5008891;28;20434;-60
2023/07/13 08:48:43;;;;;;;1023.70;910.92;;;;;;;;;;5024394;28;20443;-60
2023/07/13 08:51:27;;;;;;;1014.97;885.88;;;;;;;;;;5032167;28;20953;-59
2023/07/13 08:54:03;;;;;;;1004.55;878.83;;;;;;;;;;5027044;28;20880;-60
2023/07/13 08:56:33;;;;;;;991.10;859.83;;;;;;;;;;5023508;28;20447;-60
2023/07/13 08:59:14;;;;;;;1006.03;883.65;;;;;;;;;;5015183;28;20441;-60
2023/07/13 09:01:48;;;;;;;1029.32;908.50;;;;;;;;;;5034540;28;21099;-60
2023/07/13 09:04:17;;;;;;;1008.50;886.17;;;;;;;;;;5017788;28;20464;-60
2023/07/13 09:07:07;;;;;;;1012.87;882.80;;;;;;;;;;5024157;28;20435;-61
2023/07/13 09:09:58;;;;;;;1005.35;875.30;;;;;;;;;;5023470;28;20511;-61
2023/07/13 09:12:36;;;;;;;999.40;875.08;;;;;;;;;;4979910;28;20954;-60
2023/07/13 09:15:06;;;;;;;1007.83;883.33;;;;;;;;;;5024169;28;20434;-60
2023/07/13 09:17:36;;;;;;;1001.88;877.97;;;;;;;;;;5020086;28;20505;-60
2023/07/13 09:20:18;;;;;;;1006.70;880.97;;;;;;;;;;5029474;28;20434;-61
2023/07/13 09:22:46;;;;;;;1008.60;884.50;;;;;;;;;;5028156;28;20462;-60
2023/07/13 09:25:21;;;;;;;1023.50;903.55;;;;;;;;;;5022580;28;21145;-60
2023/07/13 09:27:49;;;;;;;1036.95;921.50;;;;;;;;;;5032318;28;20435;-60
2023/07/13 09:30:22;;;;;;;1052.35;939.05;;;;;;;;;;5014045;28;20431;-60
2023/07/13 09:32:51;;;;;;;1062.17;944.33;;;;;;;;;;5030427;28;20426;-60
2023/07/13 09:35:28;;;;;;;878.63;800.75;;;;;;;;;;5029494;28;20434;-60
2023/07/13 09:38:00;;;;;;;1067.40;965.72;;;;;;;;;;5042782;28;20429;-60
2023/07/13 09:40:48;;;;;;;707.92;645.92;;;;;;;;;;5021987;28;20513;-61
2023/07/13 09:43:17;;;;;;;123.35;114.18;;;;;;;;;;5038882;28;20545;-60
2023/07/13 09:45:47;;;;;;;862.90;789.90;;;;;;;;;;5018064;28;20497;-60
2023/07/13 09:48:14;;;;;;;491.58;446.33;;;;;;;;;;5030579;28;20622;-60
2023/07/13 09:50:43;;;;;;;1047.13;960.63;;;;;;;;;;5024801;28;20437;-60
2023/07/13 09:53:14;;;;;;;843.63;771.78;;;;;;;;;;5040785;28;21098;-60
2023/07/13 09:55:42;;;;;;;29.15;27.05;;;;;;;;;;5037859;28;20489;-61
2023/07/13 09:58:11;;;;;;;22.48;21.13;;;;;;;;;;5014833;28;20431;-61
2023/07/13 10:00:40;;;;;;;126.38;116.70;;;;;;;;;;5025672;28;20517;-60
2023/07/13 10:03:18;;;;;;;626.97;571.70;;;;;;;;;;5029034;28;20442;-59
2023/07/13 10:05:50;;;;;;;1070.80;982.67;;;;;;;;;;5027938;28;20447;-59
2023/07/13 10:08:30;;;;;;;922.63;845.63;;;;;;;;;;5035742;28;20433;-59
2023/07/13 10:11:02;;;;;;;777.20;710.03;;;;;;;;;;5023062;28;20437;-60
2023/07/13 10:13:50;;;;;;;978.28;897.65;;;;;;;;;;5029373;28;20514;-59
2023/07/13 10:16:18;;;;;;;1025.47;941.70;;;;;;;;;;5027183;28;20439;-59
2023/07/13 10:18:47;;;;;;;380.17;347.00;;;;;;;;;;5028973;28;20478;-59
2023/07/13 10:21:16;;;;;;;435.92;396.20;;;;;;;;;;5028978;28;20435;-60
2023/07/13 10:23:49;;;;;;;571.85;519.35;;;;;;;;;;5034671;28;20544;-59
2023/07/13 10:26:28;;;;;;;764.00;697.90;;;;;;;;;;5009316;28;20530;-59
2023/07/13 10:28:57;;;;;;;850.35;778.47;;;;;;;;;;5034227;28;21222;-60
2023/07/13 10:31:24;;;;;;;354.33;323.70;;;;;;;;;;5026482;28;20435;-60
2023/07/13 10:33:52;;;;;;;566.00;514.00;;;;;;;;;;5034597;28;21466;-61
2023/07/13 10:36:31;;;;;;;826.10;755.65;;;;;;;;;;5036222;28;20504;-60
2023/07/13 10:39:01;;;;;;;870.88;797.40;;;;;;;;;;5027993;28;20455;-60
2023/07/13 10:41:30;;;;;;;1001.17;918.33;;;;;;;;;;5026979;28;20515;-61
2023/07/13 10:43:58;;;;;;;1076.85;963.47;;;;;;;;;;5027297;28;20485;-60
2023/07/13 10:46:30;;;;;;;1083.68;966.45;;;;;;;;;;5029105;28;20514;-60
2023/07/13 10:49:06;;;;;;;1093.30;975.47;;;;;;;;;;5026475;28;20439;-60
2023/07/13 10:51:33;;;;;;;1145.55;999.90;;;;;;;;;;5029026;28;20844;-60
2023/07/13 10:54:21;;;;;;;1134.67;999.90;;;;;;;;;;5027883;28;20439;-60
2023/07/13 10:57:04;;;;;;;1128.18;999.90;;;;;;;;;;5022848;28;20997;-60
2023/07/13 10:59:34;;;;;;;1086.22;971.00;;;;;;;;;;5021908;28;20433;-61
2023/07/13 11:02:04;;;;;;;1099.50;983.15;;;;;;;;;;5024868;28;20467;-59
2023/07/13 11:04:43;;;;;;;1057.68;942.22;;;;;;;;;;5023696;28;20461;-65
2023/07/13 11:07:27;;;;;;;1068.15;951.83;;;;;;;;;;5026560;28;20432;-64
2023/07/13 11:09:58;;;;;;;1063.10;947.22;;;;;;;;;;5025253;28;20437;-65
2023/07/13 11:12:26;;;;;;;1142.85;999.90;;;;;;;;;;5012748;28;20439;-67
2023/07/13 11:14:55;;;;;;;1094.57;976.67;;;;;;;;;;5025249;28;20443;-66
2023/07/13 11:17:40;;;;;;;1043.80;929.35;;;;;;;;;;5037047;28;20435;-66
2023/07/13 11:20:20;;;;;;;1042.75;928.08;;;;;;;;;;5029774;28;20513;-64
2023/07/13 11:22:52;;;;;;;1073.72;957.50;;;;;;;;;;5020901;28;20905;-65
2023/07/13 11:25:19;;;;;;;1046.22;933.78;;;;;;;;;;4997505;28;20451;-65
2023/07/13 11:27:49;;;;;;;1014.97;901.30;;;;;;;;;;5021162;28;20437;-66
2023/07/13 11:30:32;;;;;;;1053.67;938.00;;;;;;;;;;5034885;28;20512;-64
2023/07/13 11:33:15;;;;;;;1046.88;932.55;;;;;;;;;;5046039;28;20434;-66
2023/07/13 11:35:51;;;;;;;1022.50;910.38;;;;;;;;;;5035069;28;20564;-67
2023/07/13 11:38:23;;;;;;;1004.10;893.30;;;;;;;;;;5026933;28;20437;-66
2023/07/13 11:40:52;;;;;;;1021.10;909.50;;;;;;;;;;5030607;28;20456;-68
2023/07/13 11:43:23;;;;;;;1033.95;919.80;;;;;;;;;;5026335;28;20434;-67
2023/07/13 11:45:51;;;;;;;1020.85;905.47;;;;;;;;;;5025284;28;20442;-68
2023/07/13 11:48:21;;;;;;;1026.63;911.20;;;;;;;;;;5023389;28;20459;-67
2023/07/13 11:50:52;;;;;;;1019.23;907.40;;;;;;;;;;5024611;28;20431;-67
2023/07/13 11:53:19;;;;;;;1027.53;914.87;;;;;;;;;;5026975;28;20435;-64
2023/07/13 11:55:46;;;;;;;1028.50;915.17;;;;;;;;;;5009296;28;20449;-67
2023/07/13 11:58:17;;;;;;;1039.28;925.08;;;;;;;;;;5031649;28;20431;-68
2023/07/13 12:00:46;;;;;;;1053.18;938.03;;;;;;;;;;5014407;28;20512;-68
2023/07/13 12:03:18;;;;;;;990.28;880.20;;;;;;;;;;5022205;28;20437;-67
2023/07/13 12:05:57;;;;;;;979.00;859.42;;;;;;;;;;5027709;28;20526;-67
2023/07/13 12:08:24;;;;;;;985.33;873.85;;;;;;;;;;5010148;28;20532;-68
2023/07/13 12:11:15;;;;;;;984.33;870.50;;;;;;;;;;5018977;28;20446;-66
2023/07/13 12:13:42;;;;;;;990.30;872.25;;;;;;;;;;5023046;28;20433;-68
2023/07/13 12:16:15;;;;;;;969.05;850.75;;;;;;;;;;5021506;28;20434;-68
2023/07/13 12:18:45;;;;;;;950.92;820.00;;;;;;;;;;4991503;28;20945;-68
2023/07/13 12:21:17;;;;;;;952.37;821.43;;;;;;;;;;5021469;28;20424;-66
2023/07/13 12:23:45;;;;;;;963.67;832.05;;;;;;;;;;5018988;28;20434;-65
2023/07/13 12:26:12;;;;;;;957.65;827.47;;;;;;;;;;5030333;28;20527;-65
2023/07/13 12:28:46;;;;;;;994.08;874.15;;;;;;;;;;5005214;28;20442;-67
2023/07/13 12:31:25;;;;;;;978.70;855.37;;;;;;;;;;5026892;28;20439;-67
2023/07/13 12:34:00;;;;;;;995.60;877.47;;;;;;;;;;5010499;28;20570;-66
2023/07/13 12:36:30;;;;;;;982.22;867.22;;;;;;;;;;5016327;28;20465;-66
2023/07/13 12:39:03;;;;;;;982.83;861.47;;;;;;;;;;5029890;28;20431;-65
2023/07/13 12:41:31;;;;;;;996.23;880.47;;;;;;;;;;5024694;28;20430;-67
2023/07/13 12:43:59;;;;;;;980.70;853.65;;;;;;;;;;5022838;28;20728;-67
2023/07/13 12:46:30;;;;;;;954.17;820.58;;;;;;;;;;5024093;28;20429;-66
2023/07/13 12:48:58;;;;;;;964.95;829.38;;;;;;;;;;5023445;28;20437;-67
2023/07/13 12:51:43;;;;;;;953.05;805.22;;;;;;;;;;5030406;28;21103;-66
2023/07/13 12:54:16;;;;;;;951.58;801.97;;;;;;;;;;5027464;28;20826;-68
2023/07/13 12:56:44;;;;;;;958.35;813.20;;;;;;;;;;5041191;28;20417;-68
2023/07/13 12:59:21;;;;;;;965.65;821.42;;;;;;;;;;5036016;28;20423;-68
2023/07/13 13:01:49;;;;;;;965.73;820.43;;;;;;;;;;5028292;28;20454;-66
2023/07/13 13:04:21;;;;;;;960.63;814.47;;;;;;;;;;5032582;28;20516;-65
2023/07/13 13:06:49;;;;;;;985.10;852.43;;;;;;;;;;5032856;28;20874;-67
2023/07/13 13:09:20;;;;;;;995.47;870.63;;;;;;;;;;5031276;28;20446;-65
2023/07/13 13:11:47;;;;;;;967.22;845.20;;;;;;;;;;5024789;28;20561;-67
2023/07/13 13:14:15;;;;;;;977.70;847.78;;;;;;;;;;5029544;28;20580;-67
2023/07/13 13:16:49;;;;;;;984.50;860.00;;;;;;;;;;5038253;28;20459;-64
2023/07/13 13:19:19;;;;;;;982.78;854.97;;;;;;;;;;5012818;28;20422;-67
2023/07/13 13:21:46;;;;;;;980.53;853.55;;;;;;;;;;5031817;28;20425;-67
2023/07/13 13:24:15;;;;;;;973.72;842.30;;;;;;;;;;5032644;28;20429;-66
2023/07/13 13:26:45;;;;;;;968.80;835.30;;;;;;;;;;5027307;28;20440;-66
2023/07/13 13:29:13;;;;;;;965.45;827.55;;;;;;;;;;5027810;28;20467;-67
2023/07/13 13:31:41;;;;;;;964.05;829.45;;;;;;;;;;5015524;28;20430;-67
2023/07/13 13:34:10;;;;;;;963.85;823.80;;;;;;;;;;5027100;28;20439;-65
2023/07/13 13:36:38;;;;;;;954.10;812.05;;;;;;;;;;5031782;28;20915;-65
2023/07/13 13:39:06;;;;;;;952.63;812.63;;;;;;;;;;5028003;28;20585;-64
2023/07/13 13:41:35;;;;;;;961.25;822.00;;;;;;;;;;5026987;28;20477;-68
2023/07/13 13:44:05;;;;;;;1018.38;898.58;;;;;;;;;;5028006;28;20558;-64
2023/07/13 13:46:32;;;;;;;1024.00;901.42;;;;;;;;;;5029091;28;20465;-67
2023/07/13 13:48:59;;;;;;;1032.90;913.13;;;;;;;;;;5022923;28;20514;-64
2023/07/13 13:51:33;;;;;;;1048.80;932.78;;;;;;;;;;5019493;28;20443;-67